Terminal Aerodrome Forecast
Issued by NWS Tallahassee, FL

Home | Current Version | Previous Version | Text Only | Print | Product List | Glossary On
Versions: 1 2 3 4 5 6 7 8 9 10 11 12 13 14 15 16 17 18 19 20 21 22 23 24 25 26 27 28 29
000
FTUS42 KTAE 060500
TAFTLH
TAF
KTLH 060535Z 0606/0706 35008KT P6SM SCT015
      TEMPO 0606/0610 BKN020
     FM061400 36009KT P6SM BKN050
     FM062000 01009KT P6SM SCT110
     FM070300 00000KT P6SM SCT250=

USA.gov is the U.S. government's official web portal to all federal, state and local government web resources and services.